createdAt,value
2018-02-27T00:00:21.171Z,1.60
2018-02-27T00:01:21.358Z,1.30
2018-02-27T00:02:21.543Z,1.50
2018-02-27T00:03:21.729Z,1.40
2018-02-27T00:04:21.927Z,1.60
2018-02-27T00:05:22.101Z,1.50
2018-02-27T00:06:22.287Z,1.40
2018-02-27T00:07:22.475Z,1.60
2018-02-27T00:08:22.659Z,1.60
2018-02-27T00:09:22.845Z,1.40
2018-02-27T00:10:23.031Z,1.80
2018-02-27T00:11:23.216Z,1.60
2018-02-27T00:12:23.403Z,1.50
2018-02-27T00:13:23.589Z,1.50
2018-02-27T00:14:23.778Z,1.60
2018-02-27T00:15:23.965Z,1.30
2018-02-27T00:16:24.147Z,1.50
2018-02-27T00:17:24.332Z,1.50
2018-02-27T00:18:24.519Z,1.50
2018-02-27T00:19:24.704Z,1.30
2018-02-27T00:20:24.891Z,1.40
2018-02-27T00:21:25.077Z,1.50
2018-02-27T00:22:25.264Z,1.50
2018-02-27T00:23:25.449Z,1.40
2018-02-27T00:24:25.636Z,1.30
2018-02-27T00:25:25.822Z,1.30
2018-02-27T00:26:26.009Z,1.50
2018-02-27T00:27:26.195Z,1.60
2018-02-27T00:28:26.380Z,1.50
2018-02-27T00:29:26.565Z,1.30
2018-02-27T00:30:26.754Z,1.50
2018-02-27T00:31:26.949Z,1.50
2018-02-27T00:32:27.126Z,1.30
2018-02-27T00:33:27.312Z,1.50
2018-02-27T00:34:27.499Z,1.40
2018-02-27T00:35:27.682Z,1.40
2018-02-27T00:36:27.878Z,1.70
2018-02-27T00:37:28.061Z,1.30
2018-02-27T00:38:28.248Z,1.40
2018-02-27T00:39:28.443Z,1.50
2018-02-27T00:40:28.616Z,1.50
2018-02-27T00:41:28.804Z,1.40
2018-02-27T00:42:28.988Z,1.40
2018-02-27T00:43:29.184Z,1.20
2018-02-27T00:44:29.364Z,1.30
2018-02-27T00:45:29.538Z,1.50
2018-02-27T00:46:29.724Z,1.30
2018-02-27T00:47:29.910Z,1.10
2018-02-27T00:48:30.108Z,1.50
2018-02-27T00:49:30.286Z,1.40
2018-02-27T00:50:30.502Z,1.40
2018-02-27T00:51:30.658Z,1.50
2018-02-27T00:52:30.880Z,1.60
2018-02-27T00:53:31.056Z,1.40
2018-02-27T00:54:31.241Z,1.60
2018-02-27T00:55:31.428Z,1.70
2018-02-27T00:56:31.613Z,1.30
2018-02-27T00:57:31.802Z,1.30
2018-02-27T00:58:31.992Z,1.50
2018-02-27T00:59:32.174Z,1.40
2018-02-27T01:00:32.359Z,1.40
2018-02-27T01:01:32.547Z,1.30
2018-02-27T01:02:32.740Z,1.50
2018-02-27T01:03:32.915Z,1.50
2018-02-27T01:04:33.101Z,1.30
2018-02-27T01:05:33.288Z,1.30
2018-02-27T01:06:33.475Z,1.10
2018-02-27T01:07:33.661Z,1.20
2018-02-27T01:08:33.849Z,1.50
2018-02-27T01:09:34.033Z,1.40
2018-02-27T01:10:34.220Z,1.60
2018-02-27T01:11:34.405Z,1.50
2018-02-27T01:12:34.600Z,1.40
2018-02-27T01:13:34.776Z,1.30
2018-02-27T01:14:34.963Z,1.50
2018-02-27T01:15:35.148Z,1.50
2018-02-27T01:16:35.335Z,1.20
2018-02-27T01:17:35.527Z,1.40
2018-02-27T01:18:35.707Z,1.40
2018-02-27T01:19:35.894Z,1.60
2018-02-27T01:20:36.081Z,1.30
2018-02-27T01:21:36.332Z,1.30
2018-02-27T01:22:36.548Z,1.40
2018-02-27T01:23:36.657Z,1.10
2018-02-27T01:24:36.840Z,1.40
2018-02-27T01:25:37.035Z,1.20
2018-02-27T01:26:37.219Z,1.30
2018-02-27T01:27:37.407Z,1.20
2018-02-27T01:28:37.592Z,1.40
2018-02-27T01:29:37.778Z,1.30
2018-02-27T01:30:37.965Z,1.60
2018-02-27T01:31:38.151Z,1.30
2018-02-27T01:32:38.338Z,1.50
2018-02-27T01:33:38.521Z,1.40
2018-02-27T01:34:38.715Z,1.60
2018-02-27T01:35:38.898Z,1.50
2018-02-27T01:36:39.084Z,1.20
2018-02-27T01:37:39.276Z,1.30
2018-02-27T01:38:39.453Z,1.30
2018-02-27T01:39:39.642Z,1.30
2018-02-27T01:40:39.826Z,1.30
2018-02-27T01:41:40.010Z,1.20
2018-02-27T01:42:40.198Z,1.30
2018-02-27T01:43:40.385Z,1.30
2018-02-27T01:44:40.572Z,1.40
2018-02-27T01:45:40.765Z,1.20
2018-02-27T01:46:40.944Z,1.20
2018-02-27T01:47:41.130Z,1.30
2018-02-27T01:48:41.316Z,1.20
2018-02-27T01:49:41.509Z,1.30
2018-02-27T01:50:41.685Z,1.10
2018-02-27T01:51:41.872Z,1.10
2018-02-27T01:52:42.058Z,1.50
2018-02-27T01:53:42.247Z,1.30
2018-02-27T01:54:42.431Z,1.40
2018-02-27T01:55:42.617Z,1.30
2018-02-27T01:56:42.802Z,1.20
2018-02-27T01:57:42.988Z,1.20
2018-02-27T01:58:43.174Z,1.40
2018-02-27T01:59:43.363Z,1.10
2018-02-27T02:00:43.549Z,1.50
2018-02-27T02:01:43.742Z,1.40
2018-02-27T02:02:43.920Z,1.50
2018-02-27T02:03:44.109Z,1.50
2018-02-27T02:04:44.294Z,1.30
2018-02-27T02:05:44.485Z,1.00
2018-02-27T02:06:44.664Z,1.30
2018-02-27T02:07:44.853Z,1.50
2018-02-27T02:08:45.041Z,1.30
2018-02-27T02:09:45.230Z,1.30
2018-02-27T02:10:45.407Z,1.10
2018-02-27T02:11:45.593Z,1.40
2018-02-27T02:12:45.782Z,1.10
2018-02-27T02:13:45.973Z,1.20
2018-02-27T02:14:46.150Z,1.20
2018-02-27T02:15:46.337Z,1.40
2018-02-27T02:16:46.523Z,1.00
2018-02-27T02:17:46.710Z,1.40
2018-02-27T02:18:46.897Z,1.10
2018-02-27T02:19:47.078Z,1.20
2018-02-27T02:20:47.277Z,1.40
2018-02-27T02:21:47.463Z,1.30
2018-02-27T02:22:47.653Z,1.40
2018-02-27T02:23:47.836Z,1.40
2018-02-27T02:24:48.023Z,1.20
2018-02-27T02:25:48.211Z,1.30
2018-02-27T02:26:48.392Z,1.10
2018-02-27T02:27:48.581Z,1.40
2018-02-27T02:28:48.767Z,1.20
2018-02-27T02:29:48.952Z,1.30
2018-02-27T02:30:49.138Z,1.30
2018-02-27T02:31:49.324Z,1.20
2018-02-27T02:32:49.510Z,1.40
2018-02-27T02:33:49.696Z,1.10
2018-02-27T02:34:49.885Z,1.30
2018-02-27T02:35:50.062Z,1.30
2018-02-27T02:36:50.251Z,1.30
2018-02-27T02:37:50.439Z,1.10
2018-02-27T02:38:50.618Z,1.30
2018-02-27T02:39:50.804Z,1.20
2018-02-27T02:40:50.990Z,1.20
2018-02-27T02:41:51.175Z,1.20
2018-02-27T02:42:51.348Z,1.30
2018-02-27T02:43:51.543Z,1.20
2018-02-27T02:44:51.728Z,1.30
2018-02-27T02:45:51.916Z,1.30
2018-02-27T02:46:52.104Z,1.20
2018-02-27T02:47:52.296Z,1.30
2018-02-27T02:48:52.477Z,1.40
2018-02-27T02:49:52.661Z,1.10
2018-02-27T02:50:52.848Z,1.30
2018-02-27T02:51:53.037Z,1.30
2018-02-27T02:52:53.225Z,1.30
2018-02-27T02:53:53.408Z,1.00
2018-02-27T02:54:53.592Z,1.40
2018-02-27T02:55:53.778Z,1.40
2018-02-27T02:56:53.964Z,1.20
2018-02-27T02:57:54.149Z,1.20
2018-02-27T02:58:54.334Z,1.30
2018-02-27T02:59:54.524Z,1.30
2018-02-27T03:00:54.712Z,1.30
2018-02-27T03:01:54.894Z,1.00
2018-02-27T03:02:55.080Z,1.10
2018-02-27T03:03:55.267Z,1.30
2018-02-27T03:04:55.452Z,1.20
2018-02-27T03:05:55.638Z,1.20
2018-02-27T03:06:55.828Z,1.30
2018-02-27T03:07:56.011Z,1.10
2018-02-27T03:08:56.197Z,1.20
2018-02-27T03:09:56.375Z,1.20
2018-02-27T03:10:56.569Z,1.30
2018-02-27T03:11:56.759Z,1.30
2018-02-27T03:12:56.941Z,1.20
2018-02-27T03:13:57.132Z,1.30
2018-02-27T03:14:57.313Z,1.20
2018-02-27T03:15:57.500Z,1.40
2018-02-27T03:16:57.684Z,1.10
2018-02-27T03:17:57.872Z,1.10
2018-02-27T03:18:58.058Z,1.20
2018-02-27T03:19:58.241Z,1.40
2018-02-27T03:20:58.429Z,1.10
2018-02-27T03:21:58.615Z,1.30
2018-02-27T03:22:58.802Z,1.20
2018-02-27T03:23:59.006Z,1.40
2018-02-27T03:24:59.267Z,1.30
2018-02-27T03:25:59.457Z,1.30
2018-02-27T03:26:59.628Z,1.20
2018-02-27T03:27:59.814Z,1.20
2018-02-27T03:29:00.003Z,1.20
2018-02-27T03:30:00.183Z,1.10
2018-02-27T03:31:00.372Z,1.20
2018-02-27T03:32:00.558Z,1.40
2018-02-27T03:33:00.739Z,1.00
2018-02-27T03:34:00.933Z,1.20
2018-02-27T03:35:01.117Z,1.30
2018-02-27T03:36:01.308Z,1.10
2018-02-27T03:37:01.502Z,1.10
2018-02-27T03:38:01.684Z,1.40
2018-02-27T03:39:01.867Z,1.20
2018-02-27T03:40:02.130Z,1.20
2018-02-27T03:41:02.304Z,1.30
2018-02-27T03:42:02.499Z,1.00
2018-02-27T03:43:02.682Z,1.10
2018-02-27T03:44:02.872Z,1.20
2018-02-27T03:45:03.122Z,1.10
2018-02-27T03:46:03.213Z,1.20
2018-02-27T03:47:03.376Z,1.50
2018-02-27T03:48:03.565Z,1.20
2018-02-27T03:49:03.742Z,1.40
2018-02-27T03:50:03.928Z,1.20
2018-02-27T03:51:04.113Z,1.10
2018-02-27T03:52:04.298Z,1.20
2018-02-27T03:53:04.484Z,1.20
2018-02-27T03:54:04.704Z,1.00
2018-02-27T03:55:04.857Z,1.10
2018-02-27T03:56:05.058Z,1.20
2018-02-27T03:57:05.243Z,1.20
2018-02-27T03:58:05.428Z,1.00
2018-02-27T03:59:05.613Z,1.10
2018-02-27T04:00:05.815Z,1.20
2018-02-27T04:01:06.000Z,1.20
2018-02-27T04:02:06.183Z,1.10
2018-02-27T04:03:06.981Z,1.20
2018-02-27T04:04:06.555Z,1.20
2018-02-27T04:05:06.742Z,1.10
2018-02-27T04:06:06.926Z,1.20
2018-02-27T04:07:07.112Z,1.30
2018-02-27T04:08:07.302Z,1.20
2018-02-27T04:09:07.488Z,1.30
2018-02-27T04:10:07.670Z,1.10
2018-02-27T04:11:07.855Z,1.00
2018-02-27T04:12:08.046Z,1.30
2018-02-27T04:13:08.231Z,1.10
2018-02-27T04:14:08.416Z,1.10
2018-02-27T04:15:08.601Z,1.10
2018-02-27T04:16:08.790Z,1.20
2018-02-27T04:17:08.974Z,1.20
2018-02-27T04:18:09.161Z,1.30
2018-02-27T04:19:09.347Z,1.10
2018-02-27T04:20:09.540Z,1.20
2018-02-27T04:21:09.718Z,1.10
2018-02-27T04:22:09.905Z,1.00
2018-02-27T04:23:10.087Z,1.10
2018-02-27T04:24:10.280Z,1.30
2018-02-27T04:25:10.461Z,1.20
2018-02-27T04:26:10.647Z,1.30
2018-02-27T04:27:10.834Z,1.10
2018-02-27T04:28:11.023Z,1.30
2018-02-27T04:29:11.210Z,1.10
2018-02-27T04:30:11.395Z,1.10
2018-02-27T04:31:11.582Z,1.10
2018-02-27T04:32:11.766Z,1.00
2018-02-27T04:33:11.952Z,1.30
2018-02-27T04:34:12.140Z,1.20
2018-02-27T04:35:12.325Z,1.30
2018-02-27T04:36:12.517Z,0.90
2018-02-27T04:37:12.693Z,1.10
2018-02-27T04:38:12.879Z,1.00
2018-02-27T04:39:13.065Z,1.10
2018-02-27T04:40:13.255Z,1.30
2018-02-27T04:41:13.442Z,1.10
2018-02-27T04:42:13.628Z,1.30
2018-02-27T04:43:13.814Z,1.10
2018-02-27T04:44:14.000Z,1.10
2018-02-27T04:45:14.177Z,1.20
2018-02-27T04:46:14.365Z,1.10
2018-02-27T04:47:14.551Z,1.30
2018-02-27T04:48:14.740Z,1.40
2018-02-27T04:49:14.931Z,1.20
2018-02-27T04:50:15.113Z,1.30
2018-02-27T04:51:15.299Z,1.10
2018-02-27T04:52:15.488Z,1.00
2018-02-27T04:53:15.671Z,1.30
2018-02-27T04:54:15.858Z,1.30
2018-02-27T04:55:16.043Z,1.00
2018-02-27T04:56:16.232Z,1.20
2018-02-27T04:57:16.417Z,1.20
2018-02-27T04:58:16.603Z,1.10
2018-02-27T04:59:16.789Z,0.90
2018-02-27T05:00:16.976Z,1.30
2018-02-27T05:01:17.161Z,1.10
2018-02-27T05:02:17.348Z,1.30
2018-02-27T05:03:17.534Z,1.00
2018-02-27T05:04:17.719Z,1.30
2018-02-27T05:05:17.906Z,1.30
2018-02-27T05:06:18.090Z,1.10
2018-02-27T05:07:18.276Z,1.20
2018-02-27T05:08:18.463Z,1.00
2018-02-27T05:09:18.660Z,1.30
2018-02-27T05:10:18.835Z,1.20
2018-02-27T05:11:19.021Z,1.00
2018-02-27T05:12:19.208Z,1.10
2018-02-27T05:13:19.394Z,1.10
2018-02-27T05:14:19.582Z,1.20
2018-02-27T05:15:19.775Z,1.30
2018-02-27T05:16:19.978Z,1.10
2018-02-27T05:17:20.138Z,1.20
2018-02-27T05:18:20.325Z,1.10
2018-02-27T05:19:20.511Z,1.10
2018-02-27T05:20:20.696Z,1.10
2018-02-27T05:21:20.888Z,1.00
2018-02-27T05:22:21.077Z,1.40
2018-02-27T05:23:21.264Z,1.20
2018-02-27T05:24:21.444Z,1.30
2018-02-27T05:25:21.631Z,1.30
2018-02-27T05:26:21.819Z,1.20
2018-02-27T05:27:22.009Z,1.40
2018-02-27T05:28:22.185Z,1.30
2018-02-27T05:29:22.371Z,1.20
2018-02-27T05:30:22.557Z,1.50
2018-02-27T05:31:22.743Z,1.10
2018-02-27T05:32:22.928Z,1.20
2018-02-27T05:33:23.114Z,1.40
2018-02-27T05:34:23.300Z,1.20
2018-02-27T05:35:23.486Z,1.20
2018-02-27T05:36:23.673Z,1.30
2018-02-27T05:37:23.858Z,1.40
2018-02-27T05:38:24.044Z,1.40
2018-02-27T05:39:24.226Z,1.10
2018-02-27T05:40:24.419Z,1.40
2018-02-27T05:41:24.604Z,1.20
2018-02-27T05:42:24.790Z,1.10
2018-02-27T05:43:24.976Z,1.30
2018-02-27T05:44:25.161Z,1.30
2018-02-27T05:45:25.345Z,1.40
2018-02-27T05:46:25.532Z,1.30
2018-02-27T05:47:25.719Z,1.30
2018-02-27T05:48:25.905Z,1.20
2018-02-27T05:49:26.090Z,1.20
2018-02-27T05:50:26.277Z,1.30
2018-02-27T05:51:26.462Z,1.30
2018-02-27T05:52:26.649Z,1.40
2018-02-27T05:53:26.836Z,1.10
2018-02-27T05:54:27.020Z,1.30
2018-02-27T05:55:27.207Z,1.10
2018-02-27T05:56:27.393Z,1.30
2018-02-27T05:57:27.579Z,1.20
2018-02-27T05:58:27.766Z,1.50
2018-02-27T05:59:27.951Z,1.20
2018-02-27T06:00:28.138Z,1.10
2018-02-27T06:01:28.324Z,1.30
2018-02-27T06:02:28.509Z,1.20
2018-02-27T06:03:28.694Z,1.40
2018-02-27T06:04:28.882Z,1.10
2018-02-27T06:05:29.069Z,1.20
2018-02-27T06:06:29.258Z,1.40
2018-02-27T06:07:29.441Z,1.30
2018-02-27T06:08:29.628Z,1.10
2018-02-27T06:09:29.816Z,1.30
2018-02-27T06:10:30.001Z,1.40
2018-02-27T06:11:30.186Z,1.20
2018-02-27T06:12:30.370Z,1.40
2018-02-27T06:13:30.557Z,1.20
2018-02-27T06:14:30.743Z,1.20
2018-02-27T06:15:30.928Z,1.60
2018-02-27T06:16:31.115Z,1.20
2018-02-27T06:17:31.300Z,1.30
2018-02-27T06:18:31.488Z,1.20
2018-02-27T06:19:31.682Z,1.40
2018-02-27T06:20:31.860Z,1.30
2018-02-27T06:21:32.045Z,1.10
2018-02-27T06:22:32.230Z,1.20
2018-02-27T06:23:32.416Z,1.20
2018-02-27T06:24:32.603Z,1.20
2018-02-27T06:25:32.789Z,1.40
2018-02-27T06:26:32.971Z,1.30
2018-02-27T06:27:33.160Z,1.40
2018-02-27T06:28:33.347Z,1.40
2018-02-27T06:29:33.536Z,1.40
2018-02-27T06:30:33.719Z,1.30
2018-02-27T06:31:33.906Z,1.20
2018-02-27T06:32:34.093Z,1.40
2018-02-27T06:33:34.277Z,1.30
2018-02-27T06:34:34.462Z,1.20
2018-02-27T06:35:34.648Z,1.50
2018-02-27T06:36:34.839Z,1.40
2018-02-27T06:37:35.019Z,1.40
2018-02-27T06:38:35.205Z,1.40
2018-02-27T06:39:35.389Z,1.20
2018-02-27T06:40:35.581Z,1.30
2018-02-27T06:41:35.764Z,1.40
2018-02-27T06:42:35.950Z,1.30
2018-02-27T06:43:36.134Z,1.20
2018-02-27T06:44:36.325Z,1.50
2018-02-27T06:45:36.507Z,1.20
2018-02-27T06:46:36.693Z,1.20
2018-02-27T06:47:36.879Z,1.20
2018-02-27T06:48:37.067Z,1.50
2018-02-27T06:49:37.254Z,1.20
2018-02-27T06:50:37.439Z,1.60
2018-02-27T06:51:37.626Z,1.30
2018-02-27T06:52:37.813Z,1.30
2018-02-27T06:53:37.999Z,1.30
2018-02-27T06:54:38.183Z,1.20
2018-02-27T06:55:38.370Z,1.30
2018-02-27T06:56:38.556Z,1.60
2018-02-27T06:57:38.744Z,1.40
2018-02-27T06:58:38.930Z,1.20
2018-02-27T06:59:39.122Z,1.50
2018-02-27T07:00:39.299Z,1.30
2018-02-27T07:01:39.486Z,1.40
2018-02-27T07:02:39.675Z,1.30
2018-02-27T07:03:39.851Z,1.40
2018-02-27T07:04:40.041Z,1.30
2018-02-27T07:05:40.230Z,1.20
2018-02-27T07:06:40.415Z,1.50
2018-02-27T07:07:40.995Z,1.60
2018-02-27T07:08:40.791Z,1.20
2018-02-27T07:09:40.974Z,1.30
2018-02-27T07:10:41.514Z,1.50
2018-02-27T07:11:41.357Z,1.30
2018-02-27T07:12:41.535Z,1.50
2018-02-27T07:13:41.720Z,1.20
2018-02-27T07:14:41.910Z,1.30
2018-02-27T07:15:42.103Z,1.30
2018-02-27T07:16:42.281Z,1.20
2018-02-27T07:17:42.473Z,1.40
2018-02-27T07:18:42.664Z,1.20
2018-02-27T07:19:42.834Z,1.40
2018-02-27T07:20:43.022Z,1.40
2018-02-27T07:21:43.212Z,1.30
2018-02-27T07:22:43.391Z,1.30
2018-02-27T07:23:43.580Z,1.30
2018-02-27T07:24:43.774Z,1.20
2018-02-27T07:25:43.951Z,1.20
2018-02-27T07:26:44.141Z,1.20
2018-02-27T07:27:44.333Z,1.50
2018-02-27T07:28:44.509Z,1.60
2018-02-27T07:29:44.692Z,1.50
2018-02-27T07:30:44.871Z,1.10
2018-02-27T07:31:45.064Z,1.30
2018-02-27T07:32:45.255Z,1.50
2018-02-27T07:33:45.441Z,1.30
2018-02-27T07:34:45.627Z,1.30
2018-02-27T07:35:45.813Z,1.40
2018-02-27T07:36:46.007Z,1.40
2018-02-27T07:37:46.203Z,1.30
2018-02-27T07:38:46.461Z,1.40
2018-02-27T07:39:46.527Z,1.60
2018-02-27T07:40:46.656Z,1.40
2018-02-27T07:41:46.870Z,1.50
2018-02-27T07:42:47.068Z,1.30
2018-02-27T07:43:47.256Z,1.40
2018-02-27T07:44:47.439Z,1.30
2018-02-27T07:45:47.631Z,1.30
2018-02-27T07:46:47.817Z,1.40
2018-02-27T07:47:48.000Z,1.40
2018-02-27T07:48:48.186Z,1.30
2018-02-27T07:49:48.374Z,1.50
2018-02-27T07:50:48.558Z,1.40
2018-02-27T07:51:48.751Z,1.50
2018-02-27T07:52:48.935Z,1.40
2018-02-27T07:53:49.122Z,1.50
2018-02-27T07:54:49.302Z,1.60
2018-02-27T07:55:49.488Z,1.60
2018-02-27T07:56:49.674Z,1.50
2018-02-27T07:57:49.866Z,1.50
2018-02-27T07:58:50.044Z,1.30
2018-02-27T07:59:50.473Z,1.30
2018-02-27T08:00:50.411Z,1.50
2018-02-27T08:01:50.597Z,1.40
2018-02-27T08:02:50.784Z,1.30
2018-02-27T08:03:50.971Z,1.40
2018-02-27T08:04:51.156Z,1.40
2018-02-27T08:05:51.864Z,1.60
2018-02-27T08:06:51.754Z,1.30
2018-02-27T08:07:51.785Z,1.40
2018-02-27T08:08:51.986Z,1.40
2018-02-27T08:09:52.039Z,1.40
2018-02-27T08:10:52.227Z,1.30
2018-02-27T08:11:52.416Z,1.60
2018-02-27T08:12:52.600Z,1.40
2018-02-27T08:13:52.780Z,1.30
2018-02-27T08:14:52.966Z,1.60
2018-02-27T08:15:53.173Z,1.40
2018-02-27T08:16:53.354Z,1.40
2018-02-27T08:17:53.548Z,1.50
2018-02-27T08:18:53.735Z,1.40
2018-02-27T08:19:53.919Z,1.40
2018-02-27T08:20:54.106Z,1.40
2018-02-27T08:21:54.356Z,1.40
2018-02-27T08:22:54.478Z,1.40
2018-02-27T08:23:54.944Z,1.40
2018-02-27T08:24:55.074Z,1.50
2018-02-27T08:25:55.004Z,1.60
2018-02-27T08:26:55.194Z,1.50
2018-02-27T08:27:55.364Z,1.50
2018-02-27T08:28:55.550Z,1.30
2018-02-27T08:29:55.735Z,1.50
2018-02-27T08:30:55.940Z,1.40
2018-02-27T08:31:56.127Z,1.40
2018-02-27T08:32:56.314Z,1.30
2018-02-27T08:33:56.500Z,1.60
2018-02-27T08:34:56.686Z,1.60
2018-02-27T08:35:56.875Z,1.40
2018-02-27T08:36:57.059Z,1.50
2018-02-27T08:37:57.264Z,1.60
2018-02-27T08:38:57.470Z,1.60
2018-02-27T08:39:57.656Z,1.60
2018-02-27T08:40:58.016Z,1.40
2018-02-27T08:41:58.181Z,1.50
2018-02-27T08:42:58.234Z,1.50
2018-02-27T08:43:58.420Z,1.70
2018-02-27T08:44:58.606Z,1.70
2018-02-27T10:00:28.898Z,8.60
2018-02-27T10:01:29.084Z,6.70
2018-02-27T10:02:29.275Z,7.40
2018-02-27T10:03:29.435Z,8.20
2018-02-27T10:04:29.620Z,7.60
2018-02-27T10:05:29.799Z,7.90
2018-02-27T10:06:29.978Z,7.60
2018-02-27T10:08:06.260Z,6.30
2018-02-27T10:09:06.425Z,7.10
2018-02-27T10:10:07.217Z,7.10
2018-02-27T10:11:06.846Z,7.40
2018-02-27T10:12:06.972Z,7.40
2018-02-27T10:13:07.154Z,7.00
2018-02-27T10:14:07.334Z,7.00
2018-02-27T10:15:07.497Z,7.10
2018-02-27T10:16:07.681Z,7.00
2018-02-27T10:17:07.859Z,6.40
2018-02-27T10:18:08.038Z,6.70
2018-02-27T10:19:08.223Z,7.10
2018-02-27T10:20:08.403Z,6.30
2018-02-27T10:21:08.586Z,6.80
2018-02-27T10:22:08.772Z,7.00
2018-02-27T10:23:09.190Z,7.00
2018-02-27T10:24:09.134Z,6.40
2018-02-27T10:25:09.309Z,6.80
2018-02-27T10:26:09.488Z,6.80
2018-02-27T10:27:09.681Z,6.80
2018-02-27T10:28:09.851Z,7.00
2018-02-27T10:29:10.034Z,6.90
2018-02-27T10:30:10.246Z,7.00
2018-02-27T10:31:10.394Z,7.20
2018-02-27T10:32:10.575Z,6.30
2018-02-27T10:34:10.932Z,6.60
2018-02-27T10:35:11.116Z,5.90
2018-02-27T10:36:11.306Z,6.60
2018-02-27T10:37:11.510Z,6.60
2018-02-27T10:38:11.660Z,6.40
2018-02-27T10:39:11.843Z,6.80
2018-02-27T10:40:12.021Z,6.80
2018-02-27T10:41:12.210Z,6.40
2018-02-27T10:42:12.387Z,6.70
2018-02-27T10:43:12.567Z,6.50
2018-02-27T10:44:12.754Z,6.40
2018-02-27T10:45:12.922Z,6.30
2018-02-27T10:46:13.102Z,6.30
2018-02-27T10:47:13.301Z,6.50
2018-02-27T10:48:13.460Z,6.30
2018-02-27T10:49:13.652Z,6.40
2018-02-27T10:50:13.825Z,6.20
2018-02-27T10:51:14.012Z,6.40
2018-02-27T10:52:14.191Z,6.20
2018-02-27T10:53:14.378Z,6.10
2018-02-27T10:54:14.551Z,6.60
2018-02-27T10:55:14.740Z,5.70
2018-02-27T10:56:14.929Z,5.90
2018-02-27T10:57:15.120Z,6.20
2018-02-27T10:58:15.285Z,6.00
2018-02-27T10:59:15.464Z,6.00
2018-02-27T11:00:15.649Z,5.70
2018-02-27T11:01:15.828Z,5.60
2018-02-27T11:02:16.018Z,5.50
2018-02-27T11:03:16.199Z,5.90
2018-02-27T11:04:16.373Z,5.70
2018-02-27T11:05:16.556Z,5.20
2018-02-27T11:06:16.792Z,5.00
2018-02-27T11:07:16.964Z,5.00
2018-02-27T11:08:17.137Z,4.90
2018-02-27T11:09:17.324Z,5.10
2018-02-27T11:10:17.513Z,5.10
2018-02-27T11:11:17.699Z,5.00
2018-02-27T11:12:17.868Z,5.70
2018-02-27T11:13:18.050Z,5.40
2018-02-27T11:14:18.231Z,5.00
2018-02-27T11:15:18.426Z,5.30
2018-02-27T11:16:18.604Z,5.30
2018-02-27T11:17:18.790Z,5.20
2018-02-27T11:18:18.963Z,5.30
2018-02-27T11:19:19.142Z,5.00
2018-02-27T11:20:19.330Z,5.40
2018-02-27T11:21:19.508Z,5.50
2018-02-27T11:22:19.677Z,5.70
2018-02-27T11:23:19.847Z,6.70
2018-02-27T11:24:20.034Z,7.00
2018-02-27T11:25:20.211Z,6.70
2018-02-27T11:26:20.396Z,6.90
2018-02-27T11:27:20.569Z,6.90
2018-02-27T11:28:20.753Z,6.80
2018-02-27T11:29:20.938Z,6.30
2018-02-27T11:30:21.117Z,4.80
2018-02-27T11:31:21.303Z,5.20
2018-02-27T11:32:21.484Z,6.90
2018-02-27T11:33:21.671Z,7.40
2018-02-27T11:34:21.844Z,6.30
2018-02-27T11:35:22.024Z,5.40
2018-02-27T11:36:22.261Z,5.20
2018-02-27T11:37:22.387Z,5.60
2018-02-27T11:38:22.569Z,4.50
2018-02-27T11:39:22.763Z,4.80
2018-02-27T11:40:22.939Z,4.80
2018-02-27T11:41:23.114Z,4.80
2018-02-27T11:42:23.292Z,4.90
2018-02-27T11:43:23.472Z,4.40
2018-02-27T11:44:23.653Z,4.60
2018-02-27T11:45:23.841Z,4.60
2018-02-27T11:46:24.015Z,5.50
2018-02-27T11:47:24.188Z,4.70
2018-02-27T11:48:24.688Z,4.80
2018-02-27T11:49:24.548Z,5.00
2018-02-27T11:50:24.727Z,5.30
2018-02-27T11:51:24.911Z,5.30
2018-02-27T11:52:25.095Z,5.00
2018-02-27T11:53:25.284Z,4.90
2018-02-27T11:54:25.493Z,5.20
2018-02-27T11:55:25.637Z,5.20
2018-02-27T11:56:25.839Z,5.80
2018-02-27T11:57:26.004Z,5.30
2018-02-27T11:58:26.191Z,4.60
2018-02-27T11:59:26.380Z,4.70
2018-02-27T12:00:26.561Z,4.60
2018-02-27T12:01:26.739Z,5.50
2018-02-27T12:02:26.918Z,5.80
2018-02-27T12:03:27.102Z,5.20
2018-02-27T12:04:27.295Z,5.00
2018-02-27T12:05:27.485Z,4.50
2018-02-27T12:06:27.668Z,5.20
2018-02-27T12:07:27.851Z,5.20
2018-02-27T12:08:28.040Z,4.90
2018-02-27T12:09:28.220Z,4.90
2018-02-27T12:10:28.419Z,4.60
2018-02-27T12:11:28.611Z,4.40
2018-02-27T12:12:29.035Z,4.90
2018-02-27T12:13:28.969Z,4.50
2018-02-27T12:14:29.141Z,4.40
2018-02-27T12:15:29.325Z,5.10
2018-02-27T12:16:29.506Z,4.20
2018-02-27T12:17:29.690Z,4.40
2018-02-27T12:18:29.868Z,4.30
2018-02-27T12:19:30.058Z,4.70
2018-02-27T12:20:30.236Z,5.00
2018-02-27T12:21:30.424Z,4.50
2018-02-27T12:22:30.599Z,3.90
2018-02-27T12:23:30.780Z,4.80
2018-02-27T12:24:30.965Z,4.40
2018-02-27T12:25:31.138Z,3.90
2018-02-27T12:26:31.319Z,4.00
2018-02-27T12:27:31.539Z,4.60
2018-02-27T12:28:31.657Z,4.80
2018-02-27T12:29:31.840Z,5.10
2018-02-27T12:30:32.021Z,5.20
2018-02-27T12:31:32.202Z,5.00
2018-02-27T12:32:32.375Z,4.50
2018-02-27T12:33:32.551Z,4.50
2018-02-27T12:34:33.373Z,4.50
2018-02-27T12:35:32.910Z,4.50
2018-02-27T12:36:33.089Z,4.00
2018-02-27T12:37:33.275Z,4.70
2018-02-27T12:38:33.457Z,5.60
2018-02-27T12:39:33.881Z,5.40
2018-02-27T12:40:33.801Z,4.60
2018-02-27T12:41:33.977Z,4.80
2018-02-27T12:42:34.149Z,4.50
2018-02-27T12:43:34.330Z,4.30
2018-02-27T12:44:34.504Z,4.10
2018-02-27T12:45:34.856Z,4.70
2018-02-27T12:46:34.878Z,4.30
2018-02-27T12:47:35.064Z,4.70
2018-02-27T12:48:35.230Z,4.80
2018-02-27T12:49:35.413Z,4.50
2018-02-27T12:50:38.010Z,4.00
2018-02-27T12:51:35.743Z,4.00
2018-02-27T12:52:35.913Z,4.70
2018-02-27T12:53:36.090Z,3.90
2018-02-27T12:54:36.269Z,4.00
2018-02-27T12:55:36.454Z,4.70
2018-02-27T12:56:36.625Z,4.80
2018-02-27T12:57:36.813Z,4.80
2018-02-27T12:58:36.985Z,4.80
2018-02-27T13:00:37.335Z,4.70
2018-02-27T13:01:37.502Z,5.80
2018-02-27T13:02:37.677Z,5.10
2018-02-27T13:03:37.921Z,4.20
2018-02-27T13:04:38.067Z,4.50
2018-02-27T13:05:38.242Z,4.70
2018-02-27T13:06:38.419Z,4.80
2018-02-27T13:07:38.598Z,4.60
2018-02-27T13:08:38.769Z,4.80
2018-02-27T13:09:39.005Z,4.40
2018-02-27T13:10:39.116Z,4.60
2018-02-27T13:11:39.278Z,4.30
2018-02-27T13:12:39.467Z,4.20
2018-02-27T13:13:39.634Z,4.60
2018-02-27T13:14:39.822Z,4.20
2018-02-27T13:15:39.983Z,4.30
2018-02-27T13:16:40.157Z,4.70
2018-02-27T13:17:40.344Z,4.00
2018-02-27T13:18:40.513Z,4.60
2018-02-27T13:19:40.687Z,4.60
2018-02-27T13:20:40.866Z,5.00
2018-02-27T13:21:41.034Z,5.10
2018-02-27T13:22:41.214Z,4.40
2018-02-27T13:23:41.384Z,4.10
2018-02-27T13:24:41.564Z,4.30
2018-02-27T13:25:41.735Z,4.20
2018-02-27T13:26:42.194Z,4.40
2018-02-27T13:27:42.084Z,5.70
2018-02-27T13:28:42.270Z,5.90
2018-02-27T13:29:42.450Z,5.10
2018-02-27T13:30:42.644Z,5.10
2018-02-27T13:31:42.811Z,4.50
2018-02-27T13:32:42.991Z,5.00
2018-02-27T13:33:43.172Z,4.60
2018-02-27T13:34:43.338Z,4.50
2018-02-27T13:35:43.521Z,4.70
2018-02-27T13:36:43.949Z,5.50
2018-02-27T13:37:43.875Z,5.80
2018-02-27T13:38:44.057Z,5.60
2018-02-27T13:39:44.226Z,4.80
2018-02-27T13:40:44.418Z,4.50
2018-02-27T13:41:44.582Z,5.10
2018-02-27T13:42:44.748Z,4.40
2018-02-27T13:43:44.925Z,4.30
2018-02-27T13:44:45.101Z,4.00
2018-02-27T13:45:45.277Z,4.60
2018-02-27T13:46:45.457Z,4.10
2018-02-27T13:47:45.623Z,4.40
2018-02-27T13:48:46.021Z,4.60
2018-02-27T13:49:45.973Z,5.10
2018-02-27T13:50:46.150Z,4.30
2018-02-27T13:51:46.326Z,4.40
2018-02-27T13:52:46.500Z,4.00
2018-02-27T13:53:46.681Z,4.00
2018-02-27T13:54:46.854Z,4.00
2018-02-27T13:55:47.035Z,4.10
2018-02-27T13:56:47.436Z,4.20
2018-02-27T13:57:47.369Z,4.40
2018-02-27T13:58:47.547Z,4.40
2018-02-27T13:59:47.719Z,4.00
2018-02-27T14:00:47.900Z,3.90
2018-02-27T14:01:48.072Z,4.50
2018-02-27T14:02:48.245Z,4.60
2018-02-27T14:03:48.424Z,4.30
2018-02-27T14:04:48.603Z,4.90
2018-02-27T14:05:48.781Z,4.80
2018-02-27T14:06:49.196Z,4.60
2018-02-27T14:07:49.153Z,4.00
2018-02-27T14:08:49.341Z,4.50
2018-02-27T14:09:49.499Z,4.60
2018-02-27T14:10:49.679Z,4.20
2018-02-27T14:11:49.850Z,4.70
2018-02-27T14:12:50.026Z,4.30
2018-02-27T14:13:50.193Z,4.40
2018-02-27T14:14:50.372Z,4.70
2018-02-27T14:15:50.563Z,4.60
2018-02-27T14:16:50.966Z,4.80
2018-02-27T14:17:50.936Z,5.10
2018-02-27T14:18:51.096Z,4.70
2018-02-27T14:19:51.266Z,4.10
2018-02-27T14:20:51.415Z,4.60
2018-02-27T14:21:51.590Z,4.10
2018-02-27T14:22:51.771Z,4.60
2018-02-27T14:24:52.114Z,4.70
2018-02-27T14:25:52.284Z,4.40
2018-02-27T14:26:52.444Z,4.40
2018-02-27T14:27:52.621Z,4.60
2018-02-27T14:28:52.810Z,4.20
2018-02-27T14:29:56.662Z,4.30
2018-02-27T14:30:53.146Z,4.00
2018-02-27T14:31:53.320Z,4.30
2018-02-27T14:32:53.506Z,4.40
2018-02-27T14:33:53.680Z,4.10
2018-02-27T14:34:53.862Z,4.10
2018-02-27T14:35:54.022Z,4.70
2018-02-27T14:36:54.195Z,4.40
2018-02-27T14:37:54.433Z,4.10
2018-02-27T14:38:54.619Z,4.40